createdAt,value
2019-01-02T00:06:49.622Z,1021.4
2019-01-02T00:17:04.510Z,1021.5
2019-01-02T00:27:18.440Z,1021.7
2019-01-02T00:37:33.800Z,1021.7
2019-01-02T00:47:47.550Z,1021.7
2019-01-02T00:58:02.646Z,1021.6
2019-01-02T01:08:18.264Z,1021.8
2019-01-02T01:18:32.728Z,1021.7
2019-01-02T01:28:46.896Z,1022
2019-01-02T01:39:01.376Z,1022.1
2019-01-02T01:49:16.488Z,1022.4
2019-01-02T01:59:31.255Z,1022.5
2019-01-02T02:09:44.978Z,1022.3
2019-01-02T02:20:00.077Z,1022.4
2019-01-02T02:30:13.625Z,1022.5
2019-01-02T02:40:27.299Z,1022.6
2019-01-02T02:50:42.604Z,1022.6
2019-01-02T03:00:56.672Z,1022.6
2019-01-02T03:11:11.964Z,1022.6
2019-01-02T03:21:26.315Z,1022.7
2019-01-02T03:31:40.435Z,1022.9
2019-01-02T03:41:55.873Z,1023
2019-01-02T03:52:11.347Z,1022.9
2019-01-02T04:02:26.798Z,1023.1
2019-01-02T04:12:42.128Z,1023
2019-01-02T04:22:57.123Z,1023.1
2019-01-02T04:33:11.780Z,1023
2019-01-02T04:43:25.899Z,1023
2019-01-02T04:53:41.029Z,1023.1
2019-01-02T05:03:56.429Z,1023.2
2019-01-02T05:14:10.719Z,1023.3
2019-01-02T05:24:26.154Z,1023.4
2019-01-02T05:34:41.244Z,1023.6
2019-01-02T05:44:56.450Z,1023.7
2019-01-02T05:55:11.278Z,1023.7
2019-01-02T06:05:24.940Z,1023.9
2019-01-02T06:15:38.834Z,1024
2019-01-02T06:25:53.099Z,1024
2019-01-02T06:36:08.119Z,1024.1
2019-01-02T06:46:22.242Z,1024.2
2019-01-02T21:47:14.729Z,1029.8
2019-01-02T21:57:30.005Z,1029.8
2019-01-02T22:07:45.138Z,1029.6
2019-01-02T22:18:00.058Z,1029.6
2019-01-02T22:28:13.902Z,1029.6
2019-01-02T22:38:29.177Z,1029.7
2019-01-02T22:48:43.516Z,1029.7
2019-01-02T22:58:57.157Z,1029.7
2019-01-02T23:09:10.989Z,1029.7
2019-01-02T23:19:25.853Z,1029.7
2019-01-02T23:29:40.898Z,1029.7
2019-01-02T23:39:56.000Z,1029.7
2019-01-02T23:50:10.772Z,1029.6
